sensor_id;sensor_type;location;lat;lon;timestamp;pressure;altitude;pressure_sealevel;temperature;humidity
6216;BME280;3141;49.234;9.326;2022-08-19T00:00:11;99162.31;;;24.42;59.68
6216;BME280;3141;49.234;9.326;2022-08-19T00:00:56;99148.00;;;24.42;59.87
6216;BME280;3141;49.234;9.326;2022-08-19T00:01:40;99152.00;;;24.39;59.78
6216;BME280;3141;49.234;9.326;2022-08-19T00:02:23;99153.31;;;24.37;59.82
6216;BME280;3141;49.234;9.326;2022-08-19T00:03:05;99150.69;;;24.42;60.15
6216;BME280;3141;49.234;9.326;2022-08-19T00:03:49;99151.31;;;24.49;59.63
6216;BME280;3141;49.234;9.326;2022-08-19T00:04:33;99153.19;;;24.48;59.74
6216;BME280;3141;49.234;9.326;2022-08-19T00:05:20;99155.06;;;24.48;60.36
6216;BME280;3141;49.234;9.326;2022-08-19T00:06:03;99155.88;;;24.48;59.58
6216;BME280;3141;49.234;9.326;2022-08-19T00:06:46;99151.00;;;24.45;60.34
6216;BME280;3141;49.234;9.326;2022-08-19T00:07:29;99148.81;;;24.47;60.06
6216;BME280;3141;49.234;9.326;2022-08-19T00:08:11;99148.63;;;24.54;59.67
6216;BME280;3141;49.234;9.326;2022-08-19T00:08:54;99149.94;;;24.51;59.58
6216;BME280;3141;49.234;9.326;2022-08-19T00:09:37;99145.34;;;24.47;60.17
6216;BME280;3141;49.234;9.326;2022-08-19T00:10:20;99140.19;;;24.45;60.61
6216;BME280;3141;49.234;9.326;2022-08-19T00:11:03;99140.97;;;24.46;60.08
6216;BME280;3141;49.234;9.326;2022-08-19T00:11:45;99139.13;;;24.51;59.72
6216;BME280;3141;49.234;9.326;2022-08-19T00:12:28;99138.59;;;24.49;60.89
6216;BME280;3141;49.234;9.326;2022-08-19T00:13:11;99133.22;;;24.54;59.63
6216;BME280;3141;49.234;9.326;2022-08-19T00:13:54;99140.00;;;24.57;59.39
6216;BME280;3141;49.234;9.326;2022-08-19T00:14:37;99138.63;;;24.54;59.14
6216;BME280;3141;49.234;9.326;2022-08-19T00:15:21;99139.97;;;24.52;59.66
6216;BME280;3141;49.234;9.326;2022-08-19T00:16:04;99134.25;;;24.48;59.62
6216;BME280;3141;49.234;9.326;2022-08-19T00:16:48;99138.31;;;24.51;59.38
6216;BME280;3141;49.234;9.326;2022-08-19T00:17:30;99134.31;;;24.53;59.13
6216;BME280;3141;49.234;9.326;2022-08-19T00:18:13;99131.06;;;24.56;59.35
6216;BME280;3141;49.234;9.326;2022-08-19T00:18:56;99135.66;;;24.56;59.20
6216;BME280;3141;49.234;9.326;2022-08-19T00:19:38;99135.94;;;24.59;59.08
6216;BME280;3141;49.234;9.326;2022-08-19T00:20:21;99135.97;;;24.64;59.01
6216;BME280;3141;49.234;9.326;2022-08-19T00:21:03;99130.03;;;24.62;58.64
6216;BME280;3141;49.234;9.326;2022-08-19T00:21:51;99129.22;;;24.62;59.29
6216;BME280;3141;49.234;9.326;2022-08-19T00:22:33;99134.94;;;24.65;58.50
6216;BME280;3141;49.234;9.326;2022-08-19T00:23:16;99134.66;;;24.67;58.81
6216;BME280;3141;49.234;9.326;2022-08-19T00:23:59;99130.66;;;24.69;58.88
6216;BME280;3141;49.234;9.326;2022-08-19T00:24:42;99135.28;;;24.74;58.54
6216;BME280;3141;49.234;9.326;2022-08-19T00:25:25;99140.97;;;24.72;58.81
6216;BME280;3141;49.234;9.326;2022-08-19T00:26:08;99136.38;;;24.73;58.57
6216;BME280;3141;49.234;9.326;2022-08-19T00:26:52;99128.50;;;24.71;58.46
6216;BME280;3141;49.234;9.326;2022-08-19T00:27:34;99136.59;;;24.71;58.60
6216;BME280;3141;49.234;9.326;2022-08-19T00:28:16;99135.28;;;24.74;58.67
6216;BME280;3141;49.234;9.326;2022-08-19T00:28:59;99129.59;;;24.70;58.49
6216;BME280;3141;49.234;9.326;2022-08-19T00:29:42;99138.25;;;24.72;58.81
6216;BME280;3141;49.234;9.326;2022-08-19T00:30:25;99141.22;;;24.71;58.73
6216;BME280;3141;49.234;9.326;2022-08-19T00:31:10;99137.06;;;24.63;59.39
6216;BME280;3141;49.234;9.326;2022-08-19T00:31:53;99146.06;;;24.69;58.90
6216;BME280;3141;49.234;9.326;2022-08-19T00:32:38;99152.34;;;24.74;58.96
6216;BME280;3141;49.234;9.326;2022-08-19T00:33:20;99144.47;;;24.73;58.97
6216;BME280;3141;49.234;9.326;2022-08-19T00:34:03;99141.94;;;24.66;59.44
6216;BME280;3141;49.234;9.326;2022-08-19T00:34:46;99148.41;;;24.60;59.36
6216;BME280;3141;49.234;9.326;2022-08-19T00:35:28;99144.63;;;24.61;59.17
6216;BME280;3141;49.234;9.326;2022-08-19T00:36:11;99147.31;;;24.61;59.34
6216;BME280;3141;49.234;9.326;2022-08-19T00:36:55;99145.75;;;24.65;58.96
6216;BME280;3141;49.234;9.326;2022-08-19T00:37:38;99144.63;;;24.61;58.95
6216;BME280;3141;49.234;9.326;2022-08-19T00:38:20;99144.06;;;24.59;58.91
6216;BME280;3141;49.234;9.326;2022-08-19T00:39:05;99144.63;;;24.61;58.82
6216;BME280;3141;49.234;9.326;2022-08-19T00:39:47;99146.25;;;24.62;58.83
6216;BME280;3141;49.234;9.326;2022-08-19T00:40:29;99145.19;;;24.63;59.18
6216;BME280;3141;49.234;9.326;2022-08-19T00:41:15;99141.38;;;24.64;58.88
6216;BME280;3141;49.234;9.326;2022-08-19T00:41:59;99135.44;;;24.62;59.05
6216;BME280;3141;49.234;9.326;2022-08-19T00:42:42;99139.22;;;24.61;58.85
6216;BME280;3141;49.234;9.326;2022-08-19T00:43:26;99130.84;;;24.63;59.17
6216;BME280;3141;49.234;9.326;2022-08-19T00:44:22;99134.09;;;24.65;58.67
6216;BME280;3141;49.234;9.326;2022-08-19T00:45:11;99134.94;;;24.65;58.91
6216;BME280;3141;49.234;9.326;2022-08-19T00:45:54;99138.16;;;24.62;58.79
6216;BME280;3141;49.234;9.326;2022-08-19T00:46:38;99137.59;;;24.60;59.17
6216;BME280;3141;49.234;9.326;2022-08-19T00:47:21;99143.00;;;24.60;58.89
6216;BME280;3141;49.234;9.326;2022-08-19T00:48:04;99141.66;;;24.63;58.69
6216;BME280;3141;49.234;9.326;2022-08-19T00:48:46;99150.88;;;24.67;58.73
6216;BME280;3141;49.234;9.326;2022-08-19T00:49:49;99149.00;;;24.67;59.04
6216;BME280;3141;49.234;9.326;2022-08-19T00:50:34;99151.22;;;24.70;58.61
6216;BME280;3141;49.234;9.326;2022-08-19T00:51:16;99149.25;;;24.66;59.22
6216;BME280;3141;49.234;9.326;2022-08-19T00:52:06;99145.75;;;24.65;59.09
6216;BME280;3141;49.234;9.326;2022-08-19T00:52:50;99138.69;;;24.64;59.02
6216;BME280;3141;49.234;9.326;2022-08-19T00:53:33;99131.13;;;24.66;59.37
6216;BME280;3141;49.234;9.326;2022-08-19T00:54:16;99123.84;;;24.67;58.95
6216;BME280;3141;49.234;9.326;2022-08-19T00:55:00;99125.72;;;24.66;58.87
6216;BME280;3141;49.234;9.326;2022-08-19T00:55:46;99122.47;;;24.64;58.92
6216;BME280;3141;49.234;9.326;2022-08-19T00:56:30;99120.59;;;24.65;58.92
6216;BME280;3141;49.234;9.326;2022-08-19T00:57:15;99124.09;;;24.60;59.27
6216;BME280;3141;49.234;9.326;2022-08-19T00:58:02;99115.69;;;24.57;59.46
6216;BME280;3141;49.234;9.326;2022-08-19T00:58:45;99112.72;;;24.58;59.46
6216;BME280;3141;49.234;9.326;2022-08-19T00:59:28;99113.53;;;24.59;59.25
6216;BME280;3141;49.234;9.326;2022-08-19T01:00:14;99109.44;;;24.56;59.42
6216;BME280;3141;49.234;9.326;2022-08-19T01:00:57;99109.44;;;24.56;59.54
6216;BME280;3141;49.234;9.326;2022-08-19T01:01:42;99102.44;;;24.55;59.61
6216;BME280;3141;49.234;9.326;2022-08-19T01:02:27;99107.00;;;24.55;59.52
6216;BME280;3141;49.234;9.326;2022-08-19T01:03:11;99098.34;;;24.53;59.67
6216;BME280;3141;49.234;9.326;2022-08-19T01:03:54;99101.88;;;24.53;59.88
6216;BME280;3141;49.234;9.326;2022-08-19T01:04:36;99098.03;;;24.49;59.85
6216;BME280;3141;49.234;9.326;2022-08-19T01:05:26;99101.31;;;24.51;60.02
6216;BME280;3141;49.234;9.326;2022-08-19T01:06:09;99105.13;;;24.55;59.97
6216;BME280;3141;49.234;9.326;2022-08-19T01:06:51;99106.19;;;24.54;59.86
6216;BME280;3141;49.234;9.326;2022-08-19T01:07:35;99110.56;;;24.60;59.58
6216;BME280;3141;49.234;9.326;2022-08-19T01:08:19;99109.75;;;24.60;59.42
6216;BME280;3141;49.234;9.326;2022-08-19T01:09:03;99108.91;;;24.59;59.65
6216;BME280;3141;49.234;9.326;2022-08-19T01:09:46;99113.00;;;24.62;58.98
6216;BME280;3141;49.234;9.326;2022-08-19T01:10:32;99118.63;;;24.55;59.63
6216;BME280;3141;49.234;9.326;2022-08-19T01:11:16;99120.78;;;24.53;59.86
6216;BME280;3141;49.234;9.326;2022-08-19T01:11:58;99126.19;;;24.53;60.11
6216;BME280;3141;49.234;9.326;2022-08-19T01:12:41;99132.94;;;24.56;60.32
6216;BME280;3141;49.234;9.326;2022-08-19T01:13:26;99136.44;;;24.51;60.21
6216;BME280;3141;49.234;9.326;2022-08-19T01:14:10;99143.94;;;24.44;60.39
6216;BME280;3141;49.234;9.326;2022-08-19T01:14:54;99141.47;;;24.38;60.56
6216;BME280;3141;49.234;9.326;2022-08-19T01:15:46;99149.34;;;24.44;60.11
6216;BME280;3141;49.234;9.326;2022-08-19T01:16:32;99142.06;;;24.45;60.60
6216;BME280;3141;49.234;9.326;2022-08-19T01:17:16;99143.97;;;24.49;60.06
6216;BME280;3141;49.234;9.326;2022-08-19T01:18:07;99142.41;;;24.53;59.80
6216;BME280;3141;49.234;9.326;2022-08-19T01:18:50;99142.41;;;24.53;60.17
6216;BME280;3141;49.234;9.326;2022-08-19T01:19:35;99143.81;;;24.61;59.92
6216;BME280;3141;49.234;9.326;2022-08-19T01:20:21;99140.34;;;24.65;59.29
6216;BME280;3141;49.234;9.326;2022-08-19T01:21:09;99146.47;;;24.56;60.38
6216;BME280;3141;49.234;9.326;2022-08-19T01:22:01;99137.38;;;24.67;59.69
6216;BME280;3141;49.234;9.326;2022-08-19T01:22:50;99142.22;;;24.65;59.15
6216;BME280;3141;49.234;9.326;2022-08-19T01:23:33;99142.22;;;24.65;59.12
6216;BME280;3141;49.234;9.326;2022-08-19T01:24:24;99145.41;;;24.57;59.60
6216;BME280;3141;49.234;9.326;2022-08-19T01:25:07;99151.41;;;24.64;59.02
6216;BME280;3141;49.234;9.326;2022-08-19T01:25:52;99149.47;;;24.59;60.05
6216;BME280;3141;49.234;9.326;2022-08-19T01:26:40;99152.16;;;24.59;59.52
6216;BME280;3141;49.234;9.326;2022-08-19T01:27:23;99144.31;;;24.58;59.64
6216;BME280;3141;49.234;9.326;2022-08-19T01:28:06;99151.34;;;24.54;59.89
6216;BME280;3141;49.234;9.326;2022-08-19T01:28:50;99144.59;;;24.56;59.75
6216;BME280;3141;49.234;9.326;2022-08-19T01:29:34;99148.66;;;24.59;59.43
6216;BME280;3141;49.234;9.326;2022-08-19T01:30:25;99135.66;;;24.56;59.86
6216;BME280;3141;49.234;9.326;2022-08-19T01:31:12;99141.34;;;24.59;59.64
6216;BME280;3141;49.234;9.326;2022-08-19T01:31:54;99135.13;;;24.54;60.11
6216;BME280;3141;49.234;9.326;2022-08-19T01:32:37;99146.75;;;24.59;59.78
6216;BME280;3141;49.234;9.326;2022-08-19T01:33:20;99144.34;;;24.63;59.58
6216;BME280;3141;49.234;9.326;2022-08-19T01:34:02;99142.47;;;24.63;59.29
6216;BME280;3141;49.234;9.326;2022-08-19T01:34:45;99137.56;;;24.55;60.28
6216;BME280;3141;49.234;9.326;2022-08-19T01:35:30;99140.25;;;24.55;60.27
6216;BME280;3141;49.234;9.326;2022-08-19T01:37:11;99148.38;;;24.55;60.60
6216;BME280;3141;49.234;9.326;2022-08-19T01:38:02;99148.63;;;24.54;60.32
6216;BME280;3141;49.234;9.326;2022-08-19T01:38:48;99145.66;;;24.55;59.83
6216;BME280;3141;49.234;9.326;2022-08-19T01:39:31;99140.53;;;24.54;59.97
6216;BME280;3141;49.234;9.326;2022-08-19T01:40:14;99142.41;;;24.53;59.42
6216;BME280;3141;49.234;9.326;2022-08-19T01:40:57;99141.28;;;24.49;60.31
6216;BME280;3141;49.234;9.326;2022-08-19T01:41:40;99147.50;;;24.50;60.06
6216;BME280;3141;49.234;9.326;2022-08-19T01:42:23;99139.97;;;24.52;60.09
6216;BME280;3141;49.234;9.326;2022-08-19T01:43:05;99142.94;;;24.50;60.31
6216;BME280;3141;49.234;9.326;2022-08-19T01:43:48;99143.19;;;24.49;60.51
6216;BME280;3141;49.234;9.326;2022-08-19T01:44:30;99147.47;;;24.45;60.43
6216;BME280;3141;49.234;9.326;2022-08-19T01:45:13;99143.97;;;24.49;59.90
6216;BME280;3141;49.234;9.326;2022-08-19T01:45:55;99159.44;;;24.54;60.21
6216;BME280;3141;49.234;9.326;2022-08-19T01:46:38;99153.22;;;24.53;60.10
6216;BME280;3141;49.234;9.326;2022-08-19T01:47:21;99149.13;;;24.51;59.71
6216;BME280;3141;49.234;9.326;2022-08-19T01:48:03;99149.94;;;24.51;59.93
6216;BME280;3141;49.234;9.326;2022-08-19T01:48:46;99149.94;;;24.51;60.03
6216;BME280;3141;49.234;9.326;2022-08-19T01:49:29;99143.47;;;24.52;60.21
6216;BME280;3141;49.234;9.326;2022-08-19T01:50:12;99146.44;;;24.51;59.96
6216;BME280;3141;49.234;9.326;2022-08-19T01:50:55;99142.94;;;24.50;59.97
6216;BME280;3141;49.234;9.326;2022-08-19T01:51:38;99132.91;;;24.51;60.25
6216;BME280;3141;49.234;9.326;2022-08-19T01:52:20;99139.13;;;24.51;60.14
6216;BME280;3141;49.234;9.326;2022-08-19T01:53:05;99141.03;;;24.51;60.17
6216;BME280;3141;49.234;9.326;2022-08-19T01:53:49;99141.28;;;24.49;60.22
6216;BME280;3141;49.234;9.326;2022-08-19T01:54:32;99142.38;;;24.48;60.29
6216;BME280;3141;49.234;9.326;2022-08-19T01:55:18;99137.53;;;24.50;60.25
6216;BME280;3141;49.234;9.326;2022-08-19T01:56:01;99132.09;;;24.45;60.55
6216;BME280;3141;49.234;9.326;2022-08-19T01:56:44;99142.06;;;24.45;60.38
6216;BME280;3141;49.234;9.326;2022-08-19T01:57:26;99136.94;;;24.43;60.45
6216;BME280;3141;49.234;9.326;2022-08-19T01:58:12;99135.28;;;24.42;60.67
6216;BME280;3141;49.234;9.326;2022-08-19T01:59:02;99142.81;;;24.40;61.00
6216;BME280;3141;49.234;9.326;2022-08-19T01:59:45;99143.91;;;24.39;61.08
6216;BME280;3141;49.234;9.326;2022-08-19T02:00:30;99137.41;;;24.40;61.02
6216;BME280;3141;49.234;9.326;2022-08-19T02:01:13;99143.91;;;24.39;61.16
6216;BME280;3141;49.234;9.326;2022-08-19T02:01:55;99148.50;;;24.39;61.20
6216;BME280;3141;49.234;9.326;2022-08-19T02:02:38;99145.50;;;24.35;61.11
6216;BME280;3141;49.234;9.326;2022-08-19T02:03:21;99149.28;;;24.34;61.38
6216;BME280;3141;49.234;9.326;2022-08-19T02:04:03;99144.38;;;24.31;61.41
6216;BME280;3141;49.234;9.326;2022-08-19T02:04:47;99143.56;;;24.31;61.57
6216;BME280;3141;49.234;9.326;2022-08-19T02:05:29;99148.16;;;24.30;61.52
6216;BME280;3141;49.234;9.326;2022-08-19T02:06:12;99143.31;;;24.32;61.56
6216;BME280;3141;49.234;9.326;2022-08-19T02:06:57;99137.91;;;24.32;61.55
6216;BME280;3141;49.234;9.326;2022-08-19T02:07:40;99136.25;;;24.26;61.75
6216;BME280;3141;49.234;9.326;2022-08-19T02:08:23;99139.47;;;24.28;61.80
6216;BME280;3141;49.234;9.326;2022-08-19T02:09:06;99144.31;;;24.21;62.34
6216;BME280;3141;49.234;9.326;2022-08-19T02:09:49;99141.09;;;24.24;61.95
6216;BME280;3141;49.234;9.326;2022-08-19T02:10:32;99134.25;;;24.17;62.19
6216;BME280;3141;49.234;9.326;2022-08-19T02:11:20;99140.22;;;24.19;62.09
6216;BME280;3141;49.234;9.326;2022-08-19T02:12:04;99142.63;;;24.15;62.14
6216;BME280;3141;49.234;9.326;2022-08-19T02:12:48;99137.22;;;24.15;62.16
6216;BME280;3141;49.234;9.326;2022-08-19T02:13:32;99137.47;;;24.14;62.12
6216;BME280;3141;49.234;9.326;2022-08-19T02:14:14;99138.00;;;24.11;62.45
6216;BME280;3141;49.234;9.326;2022-08-19T02:14:58;99137.69;;;24.07;62.55
6216;BME280;3141;49.234;9.326;2022-08-19T02:15:40;99139.00;;;24.05;62.63
6216;BME280;3141;49.234;9.326;2022-08-19T02:16:23;99132.78;;;24.04;62.53
6216;BME280;3141;49.234;9.326;2022-08-19T02:17:06;99143.09;;;24.07;62.33
6216;BME280;3141;49.234;9.326;2022-08-19T02:17:48;99135.00;;;24.07;62.42
6216;BME280;3141;49.234;9.326;2022-08-19T02:18:30;99145.22;;;24.05;62.52
6216;BME280;3141;49.234;9.326;2022-08-19T02:19:13;99147.94;;;24.05;62.60
6216;BME280;3141;49.234;9.326;2022-08-19T02:19:56;99135.16;;;24.00;62.67
6216;BME280;3141;49.234;9.326;2022-08-19T02:20:39;99132.72;;;23.99;62.94
6216;BME280;3141;49.234;9.326;2022-08-19T02:21:23;99139.69;;;23.95;62.98
6216;BME280;3141;49.234;9.326;2022-08-19T02:22:06;99140.50;;;23.95;63.14
6216;BME280;3141;49.234;9.326;2022-08-19T02:22:48;99144.09;;;24.01;62.87
6216;BME280;3141;49.234;9.326;2022-08-19T02:23:31;99140.84;;;23.99;63.01
6216;BME280;3141;49.234;9.326;2022-08-19T02:24:13;99138.69;;;24.01;62.73
6216;BME280;3141;49.234;9.326;2022-08-19T02:24:55;99141.31;;;23.96;62.89
6216;BME280;3141;49.234;9.326;2022-08-19T02:25:38;99137.47;;;23.92;63.16
6216;BME280;3141;49.234;9.326;2022-08-19T02:26:21;99138.88;;;23.94;62.84
6216;BME280;3141;49.234;9.326;2022-08-19T02:27:04;99137.00;;;23.95;62.91
6216;BME280;3141;49.234;9.326;2022-08-19T02:27:46;99135.91;;;23.96;62.85
6216;BME280;3141;49.234;9.326;2022-08-19T02:28:29;99144.78;;;23.91;63.14
6216;BME280;3141;49.234;9.326;2022-08-19T02:29:11;99143.19;;;23.95;62.92
6216;BME280;3141;49.234;9.326;2022-08-19T02:29:53;99138.56;;;23.91;62.97
6216;BME280;3141;49.234;9.326;2022-08-19T02:30:36;99139.97;;;23.93;63.03
6216;BME280;3141;49.234;9.326;2022-08-19T02:31:20;99134.03;;;23.96;62.76
6216;BME280;3141;49.234;9.326;2022-08-19T02:32:03;99139.69;;;23.95;62.72
6216;BME280;3141;49.234;9.326;2022-08-19T02:32:46;99137.25;;;23.93;62.91
6216;BME280;3141;49.234;9.326;2022-08-19T02:33:29;99134.56;;;23.93;63.18
6216;BME280;3141;49.234;9.326;2022-08-19T02:34:11;99136.81;;;24.02;62.72
6216;BME280;3141;49.234;9.326;2022-08-19T02:34:54;99139.81;;;24.05;62.39
6216;BME280;3141;49.234;9.326;2022-08-19T02:35:36;99136.88;;;24.07;62.63
6216;BME280;3141;49.234;9.326;2022-08-19T02:36:19;99139.69;;;23.95;62.90
6216;BME280;3141;49.234;9.326;2022-08-19T02:37:01;99135.91;;;23.96;62.99
6216;BME280;3141;49.234;9.326;2022-08-19T02:37:44;99137.31;;;23.98;62.98
6216;BME280;3141;49.234;9.326;2022-08-19T02:38:45;99136.25;;;23.99;62.54
6216;BME280;3141;49.234;9.326;2022-08-19T02:39:27;99146.22;;;23.99;63.31
6216;BME280;3141;49.234;9.326;2022-08-19T02:40:10;99140.00;;;23.98;63.33
6216;BME280;3141;49.234;9.326;2022-08-19T02:40:59;99138.31;;;23.92;63.59
6216;BME280;3141;49.234;9.326;2022-08-19T02:41:41;99141.31;;;23.96;63.25
6216;BME280;3141;49.234;9.326;2022-08-19T02:42:24;99136.75;;;23.96;63.08
6216;BME280;3141;49.234;9.326;2022-08-19T02:43:08;99146.16;;;23.94;63.13
6216;BME280;3141;49.234;9.326;2022-08-19T02:43:50;99147.50;;;23.91;63.32
6216;BME280;3141;49.234;9.326;2022-08-19T02:44:33;99140.41;;;23.85;63.91
6216;BME280;3141;49.234;9.326;2022-08-19T02:45:15;99145.19;;;23.78;64.19
6216;BME280;3141;49.234;9.326;2022-08-19T02:45:58;99144.88;;;23.75;64.64
6216;BME280;3141;49.234;9.326;2022-08-19T02:46:40;99144.91;;;23.80;64.36
6216;BME280;3141;49.234;9.326;2022-08-19T02:47:23;99148.44;;;23.80;64.69
6216;BME280;3141;49.234;9.326;2022-08-19T02:48:05;99147.75;;;23.90;63.69
6216;BME280;3141;49.234;9.326;2022-08-19T02:48:48;99146.31;;;23.82;64.40
6216;BME280;3141;49.234;9.326;2022-08-19T02:49:31;99148.19;;;23.82;64.51
6216;BME280;3141;49.234;9.326;2022-08-19T02:50:13;99150.84;;;23.77;64.92
6216;BME280;3141;49.234;9.326;2022-08-19T02:50:56;99149.94;;;23.71;65.09
6216;BME280;3141;49.234;9.326;2022-08-19T02:51:43;99150.47;;;23.68;65.35
6216;BME280;3141;49.234;9.326;2022-08-19T02:52:25;99148.69;;;23.79;64.92
6216;BME280;3141;49.234;9.326;2022-08-19T02:53:09;99148.75;;;23.84;64.77
6216;BME280;3141;49.234;9.326;2022-08-19T02:53:52;99148.25;;;23.87;64.51
6216;BME280;3141;49.234;9.326;2022-08-19T02:54:34;99151.75;;;23.87;64.12
6216;BME280;3141;49.234;9.326;2022-08-19T02:55:17;99149.06;;;23.87;64.13
6216;BME280;3141;49.234;9.326;2022-08-19T02:55:59;99148.25;;;23.87;65.08
6216;BME280;3141;49.234;9.326;2022-08-19T02:56:43;99144.47;;;23.88;64.56
6216;BME280;3141;49.234;9.326;2022-08-19T02:57:25;99152.03;;;23.86;64.51
6216;BME280;3141;49.234;9.326;2022-08-19T02:58:08;99153.59;;;23.82;64.06
6216;BME280;3141;49.234;9.326;2022-08-19T02:58:50;99144.88;;;23.75;64.83
6216;BME280;3141;49.234;9.326;2022-08-19T02:59:33;99153.22;;;23.73;65.58
6216;BME280;3141;49.234;9.326;2022-08-19T03:00:16;99153.78;;;23.75;65.22
6216;BME280;3141;49.234;9.326;2022-08-19T03:00:58;99156.44;;;23.70;65.15
6216;BME280;3141;49.234;9.326;2022-08-19T03:01:42;99158.81;;;23.67;65.48
6216;BME280;3141;49.234;9.326;2022-08-19T03:02:24;99151.28;;;23.69;65.33
6216;BME280;3141;49.234;9.326;2022-08-19T03:03:06;99159.91;;;23.66;65.65
6216;BME280;3141;49.234;9.326;2022-08-19T03:03:49;99157.69;;;23.63;66.15
6216;BME280;3141;49.234;9.326;2022-08-19T03:04:31;99158.81;;;23.67;65.89
6216;BME280;3141;49.234;9.326;2022-08-19T03:05:14;99163.72;;;23.70;65.69
6216;BME280;3141;49.234;9.326;2022-08-19T03:06:11;99154.19;;;23.62;65.89
6216;BME280;3141;49.234;9.326;2022-08-19T03:06:54;99147.72;;;23.63;65.75
6216;BME280;3141;49.234;9.326;2022-08-19T03:07:37;99157.19;;;23.66;65.37
6216;BME280;3141;49.234;9.326;2022-08-19T03:08:19;99157.00;;;23.72;64.83
6216;BME280;3141;49.234;9.326;2022-08-19T03:09:02;99156.19;;;23.72;65.30
6216;BME280;3141;49.234;9.326;2022-08-19T03:09:44;99154.00;;;23.69;65.80
6216;BME280;3141;49.234;9.326;2022-08-19T03:10:27;99157.47;;;23.69;65.92
6216;BME280;3141;49.234;9.326;2022-08-19T03:11:17;99151.09;;;23.75;64.99
6216;BME280;3141;49.234;9.326;2022-08-19T03:12:00;99151.59;;;23.72;65.93
6216;BME280;3141;49.234;9.326;2022-08-19T03:12:42;99157.25;;;23.71;65.99
6216;BME280;3141;49.234;9.326;2022-08-19T03:13:24;99149.16;;;23.71;66.11
6216;BME280;3141;49.234;9.326;2022-08-19T03:14:08;99154.31;;;23.72;66.06
6216;BME280;3141;49.234;9.326;2022-08-19T03:14:50;99153.72;;;23.70;66.28
6216;BME280;3141;49.234;9.326;2022-08-19T03:15:34;99148.53;;;23.64;66.16
6216;BME280;3141;49.234;9.326;2022-08-19T03:16:17;99157.19;;;23.66;65.97
6216;BME280;3141;49.234;9.326;2022-08-19T03:17:00;99158.00;;;23.66;66.22
6216;BME280;3141;49.234;9.326;2022-08-19T03:17:42;99155.88;;;23.68;66.20
6216;BME280;3141;49.234;9.326;2022-08-19T03:18:25;99150.78;;;23.72;64.89
6216;BME280;3141;49.234;9.326;2022-08-19T03:19:07;99152.91;;;23.70;64.72
6216;BME280;3141;49.234;9.326;2022-08-19T03:19:49;99155.66;;;23.75;65.15
6216;BME280;3141;49.234;9.326;2022-08-19T03:20:32;99153.53;;;23.77;65.28
6216;BME280;3141;49.234;9.326;2022-08-19T03:21:20;99158.41;;;23.80;64.60
6216;BME280;3141;49.234;9.326;2022-08-19T03:22:03;99157.63;;;23.79;64.54
6216;BME280;3141;49.234;9.326;2022-08-19T03:22:46;99153.03;;;23.80;64.54
6216;BME280;3141;49.234;9.326;2022-08-19T03:23:29;99151.66;;;23.77;64.55
6216;BME280;3141;49.234;9.326;2022-08-19T03:24:11;99154.88;;;23.74;64.98
6216;BME280;3141;49.234;9.326;2022-08-19T03:24:54;99155.19;;;23.78;64.47
6216;BME280;3141;49.234;9.326;2022-08-19T03:25:39;99150.56;;;23.78;64.71
6216;BME280;3141;49.234;9.326;2022-08-19T03:26:22;99150.56;;;23.78;64.65
6216;BME280;3141;49.234;9.326;2022-08-19T03:27:04;99153.53;;;23.77;65.00
6216;BME280;3141;49.234;9.326;2022-08-19T03:27:47;99154.88;;;23.74;64.97
6216;BME280;3141;49.234;9.326;2022-08-19T03:28:31;99148.66;;;23.74;64.93
6216;BME280;3141;49.234;9.326;2022-08-19T03:29:15;99148.66;;;23.74;64.94
6216;BME280;3141;49.234;9.326;2022-08-19T03:29:58;99149.28;;;23.81;64.73
6216;BME280;3141;49.234;9.326;2022-08-19T03:30:42;99151.91;;;23.76;64.53
6216;BME280;3141;49.234;9.326;2022-08-19T03:31:26;99148.06;;;23.72;65.54
6216;BME280;3141;49.234;9.326;2022-08-19T03:32:09;99147.09;;;23.78;64.33
6216;BME280;3141;49.234;9.326;2022-08-19T03:32:52;99145.94;;;23.74;64.71
6216;BME280;3141;49.234;9.326;2022-08-19T03:33:35;99157.31;;;23.76;64.88
6216;BME280;3141;49.234;9.326;2022-08-19T03:34:27;99157.88;;;23.78;64.76
6216;BME280;3141;49.234;9.326;2022-08-19T03:35:10;99155.19;;;23.78;64.73
6216;BME280;3141;49.234;9.326;2022-08-19T03:36:03;99164.63;;;23.80;64.71
6216;BME280;3141;49.234;9.326;2022-08-19T03:36:46;99162.47;;;23.77;65.09
6216;BME280;3141;49.234;9.326;2022-08-19T03:37:29;99166.28;;;23.81;64.81
6216;BME280;3141;49.234;9.326;2022-08-19T03:38:11;99171.44;;;23.83;64.78
6216;BME280;3141;49.234;9.326;2022-08-19T03:38:57;99171.84;;;23.75;65.31
6216;BME280;3141;49.234;9.326;2022-08-19T03:39:40;99169.16;;;23.75;65.13
6216;BME280;3141;49.234;9.326;2022-08-19T03:40:24;99178.34;;;23.74;65.05
6216;BME280;3141;49.234;9.326;2022-08-19T03:41:11;99168.84;;;23.71;65.29
6216;BME280;3141;49.234;9.326;2022-08-19T03:41:54;99170.75;;;23.71;65.28
6216;BME280;3141;49.234;9.326;2022-08-19T03:42:43;99172.38;;;23.72;65.10
6216;BME280;3141;49.234;9.326;2022-08-19T03:43:25;99165.66;;;23.74;65.11
6216;BME280;3141;49.234;9.326;2022-08-19T03:44:07;99169.66;;;23.72;65.03
6216;BME280;3141;49.234;9.326;2022-08-19T03:44:50;99167.50;;;23.69;65.41
6216;BME280;3141;49.234;9.326;2022-08-19T03:45:33;99167.22;;;23.70;65.36
6216;BME280;3141;49.234;9.326;2022-08-19T03:46:17;99169.94;;;23.70;65.30
6216;BME280;3141;49.234;9.326;2022-08-19T03:47:02;99171.44;;;23.61;65.52
6216;BME280;3141;49.234;9.326;2022-08-19T03:47:44;99172.25;;;23.62;65.90
6216;BME280;3141;49.234;9.326;2022-08-19T03:48:27;99167.38;;;23.59;65.73
6216;BME280;3141;49.234;9.326;2022-08-19T03:49:09;99164.69;;;23.59;65.89
6216;BME280;3141;49.234;9.326;2022-08-19T03:49:52;99162.47;;;23.56;66.00
6216;BME280;3141;49.234;9.326;2022-08-19T03:50:38;99161.97;;;23.59;65.73
6216;BME280;3141;49.234;9.326;2022-08-19T03:51:27;99159.28;;;23.59;65.94
6216;BME280;3141;49.234;9.326;2022-08-19T03:52:10;99158.41;;;23.53;66.21
6216;BME280;3141;49.234;9.326;2022-08-19T03:52:52;99157.88;;;23.56;66.40
6216;BME280;3141;49.234;9.326;2022-08-19T03:53:35;99156.53;;;23.54;66.61
6216;BME280;3141;49.234;9.326;2022-08-19T03:54:19;99148.84;;;23.46;67.11
6216;BME280;3141;49.234;9.326;2022-08-19T03:55:02;99160.97;;;23.43;67.32
6216;BME280;3141;49.234;9.326;2022-08-19T03:55:45;99148.78;;;23.41;67.52
6216;BME280;3141;49.234;9.326;2022-08-19T03:56:28;99152.50;;;23.35;67.71
6216;BME280;3141;49.234;9.326;2022-08-19T03:57:10;99148.97;;;23.34;67.71
6216;BME280;3141;49.234;9.326;2022-08-19T03:57:53;99153.03;;;23.37;68.06
6216;BME280;3141;49.234;9.326;2022-08-19T03:58:35;99152.00;;;23.38;67.87
6216;BME280;3141;49.234;9.326;2022-08-19T03:59:23;99152.00;;;23.38;67.58